Time;durP1;ratioP1;P1;durP2;ratioP2;P2;SDS_P1;SDS_P2;PMS_P1;PMS_P2;Temp;Humidity;BMP_temperature;BMP_pressure;BME280_temperature;BME280_humidity;BME280_pressure;Samples;Min_cycle;Max_cycle;Signal;HPM_P1;HPM_P2
2021/08/04 00:00:26;;;;;;;5.68;1.61;;;;;;;14.71;93.89;99103.81;2001353;78;21241;-75
2021/08/04 00:03:29;;;;;;;3.41;1.45;;;;;;;14.73;93.98;99107.28;2007271;80;20735;-76
2021/08/04 00:06:32;;;;;;;3.97;1.70;;;;;;;14.75;93.90;99109.84;2007283;80;20230;-76
2021/08/04 00:09:35;;;;;;;4.44;1.65;;;;;;;14.72;93.66;99104.66;2006629;80;20208;-75
2021/08/04 00:12:38;;;;;;;5.75;1.50;;;;;;;14.67;93.49;99104.78;2006306;80;20193;-75
2021/08/04 00:15:42;;;;;;;1.64;1.48;;;;;;;14.65;93.57;99103.13;2005156;77;22161;-75
2021/08/04 00:18:45;;;;;;;4.21;1.60;;;;;;;14.66;93.69;99104.84;2006479;79;20241;-75
2021/08/04 00:21:47;;;;;;;5.30;1.61;;;;;;;14.66;93.72;99103.09;2005634;80;20237;-76
2021/08/04 00:24:50;;;;;;;6.11;2.19;;;;;;;14.70;93.85;99099.47;2006450;80;20229;-76
2021/08/04 00:27:52;;;;;;;2.56;1.60;;;;;;;14.71;93.71;99108.19;2006935;79;20197;-75
2021/08/04 00:30:55;;;;;;;3.22;1.40;;;;;;;14.70;93.69;99106.47;2005673;77;22505;-75
2021/08/04 00:33:57;;;;;;;2.19;1.60;;;;;;;14.71;93.77;99095.13;2006646;80;20193;-75
2021/08/04 00:37:00;;;;;;;4.86;1.39;;;;;;;14.72;93.70;99100.34;2006393;80;20180;-76
2021/08/04 00:40:04;;;;;;;2.78;1.35;;;;;;;14.71;93.77;99093.34;2006963;80;20766;-76
2021/08/04 00:43:08;;;;;;;3.51;1.59;;;;;;;14.72;93.86;99100.34;2006816;80;20696;-75
2021/08/04 00:46:13;;;;;;;2.64;1.42;;;;;;;14.72;93.65;99097.72;2004843;77;20526;-75
2021/08/04 00:49:16;;;;;;;4.80;1.45;;;;;;;14.69;93.53;99097.78;2006203;79;20217;-75
2021/08/04 00:52:18;;;;;;;2.50;1.46;;;;;;;14.68;93.55;99106.50;2006335;79;20173;-75
2021/08/04 00:55:21;;;;;;;5.80;1.58;;;;;;;14.69;93.48;99096.91;2006048;79;20781;-75
2021/08/04 00:58:31;;;;;;;4.96;1.58;;;;;;;14.70;93.56;99096.88;2006705;79;20220;-75
2021/08/04 01:01:53;;;;;;;2.51;1.40;;;;;;;14.67;93.70;99093.47;2005418;78;20421;-76
2021/08/04 01:05:04;;;;;;;3.15;1.34;;;;;;;14.71;93.75;99095.13;2007284;80;20287;-76
2021/08/04 01:08:22;;;;;;;1.16;1.16;;;;;;;14.71;93.79;99095.97;2005713;80;20988;-76
2021/08/04 01:11:31;;;;;;;4.39;1.53;;;;;;;14.70;93.70;99098.63;2007048;80;20259;-75
2021/08/04 01:14:36;;;;;;;4.84;1.58;;;;;;;14.64;93.59;99091.81;2006649;80;20238;-75
2021/08/04 01:17:49;;;;;;;3.79;1.80;;;;;;;14.62;93.61;99090.16;2004916;77;22269;-75
2021/08/04 01:20:52;;;;;;;2.55;1.50;;;;;;;14.59;93.68;99085.84;2004527;80;20238;-75
2021/08/04 01:24:06;;;;;;;1.86;1.60;;;;;;;14.58;93.91;99084.16;2004462;80;20743;-76
2021/08/04 01:27:13;;;;;;;4.14;1.90;;;;;;;14.58;93.82;99091.97;2005871;80;20253;-75
2021/08/04 01:30:17;;;;;;;4.94;2.15;;;;;;;14.59;93.88;99098.06;2009239;80;20228;-75
2021/08/04 01:33:21;;;;;;;3.15;1.69;;;;;;;14.57;93.68;99094.63;2005508;78;21095;-75
2021/08/04 01:36:24;;;;;;;3.59;1.94;;;;;;;14.57;93.79;99094.63;2007194;79;20226;-76
2021/08/04 01:39:28;;;;;;;1.89;1.76;;;;;;;14.57;93.73;99097.25;2007312;80;20185;-76
2021/08/04 01:42:36;;;;;;;7.46;2.04;;;;;;;14.58;93.69;99104.19;2007109;79;20197;-75
2021/08/04 01:45:40;;;;;;;3.87;1.77;;;;;;;14.57;93.65;99094.63;2006665;79;26437;-75
2021/08/04 01:48:43;;;;;;;4.85;1.77;;;;;;;14.58;93.53;99097.22;2007626;80;20683;-75
2021/08/04 01:51:47;;;;;;;3.55;1.95;;;;;;;14.58;93.54;99098.97;2006988;80;20202;-75
2021/08/04 01:54:51;;;;;;;3.15;1.88;;;;;;;14.60;93.62;99087.56;2007679;80;20222;-76
2021/08/04 01:57:54;;;;;;;2.36;1.80;;;;;;;14.61;93.46;99093.66;2007536;80;20218;-75
2021/08/04 02:00:57;;;;;;;2.49;1.91;;;;;;;14.61;93.65;99084.06;2006065;76;22768;-76
2021/08/04 02:03:59;;;;;;;5.72;1.99;;;;;;;14.64;93.81;99078.75;2009083;80;20173;-75
2021/08/04 02:07:07;;;;;;;3.31;1.96;;;;;;;14.67;93.65;99083.03;2008684;80;20181;-76
2021/08/04 02:10:14;;;;;;;4.94;1.95;;;;;;;14.66;93.56;99083.94;2008980;80;20204;-76
2021/08/04 02:13:27;;;;;;;3.36;1.95;;;;;;;14.67;93.48;99075.19;2008857;80;20218;-75
2021/08/04 02:17:02;;;;;;;1.83;1.67;;;;;;;14.66;93.24;99081.31;2007092;77;20966;-76
2021/08/04 02:20:25;;;;;;;8.43;1.91;;;;;;;14.62;93.34;99075.31;2008835;80;20225;-75
2021/08/04 02:23:38;;;;;;;3.13;1.84;;;;;;;14.65;93.39;99069.16;2008300;80;20173;-75
2021/08/04 02:26:40;;;;;;;10.40;4.05;;;;;;;14.62;93.12;99072.72;2008507;80;20177;-76
2021/08/04 02:29:46;;;;;;;4.53;2.15;;;;;;;14.64;93.10;99070.06;2008317;79;20187;-75
2021/08/04 02:32:51;;;;;;;4.53;1.99;;;;;;;14.63;93.25;99068.34;2007922;78;21532;-75
2021/08/04 02:35:54;;;;;;;5.82;2.13;;;;;;;14.58;93.10;99063.25;2008217;80;20197;-76
2021/08/04 02:39:01;;;;;;;3.10;1.86;;;;;;;14.56;93.19;99067.66;2007696;80;20249;-75
2021/08/04 02:42:05;;;;;;;3.76;2.03;;;;;;;14.55;93.39;99063.31;2007728;80;20202;-77
2021/08/04 02:45:08;;;;;;;5.18;2.42;;;;;;;14.58;93.51;99067.59;2007995;80;20173;-75
2021/08/04 02:48:13;;;;;;;6.28;2.04;;;;;;;14.59;93.51;99064.94;2006544;78;20452;-75
2021/08/04 02:51:18;;;;;;;9.95;2.10;;;;;;;14.61;93.34;99071.00;2008074;79;20654;-75
2021/08/04 02:54:21;;;;;;;3.64;2.15;;;;;;;14.59;93.21;99064.94;2008136;79;20235;-76
2021/08/04 02:57:24;;;;;;;2.78;1.90;;;;;;;14.59;93.23;99072.78;2008710;80;20177;-76
2021/08/04 03:00:26;;;;;;;6.80;2.20;;;;;;;14.60;93.20;99071.03;2007341;77;23579;-75
2021/08/04 03:03:29;;;;;;;7.75;2.38;;;;;;;14.58;93.17;99080.66;2008039;80;20237;-74
2021/08/04 03:06:31;;;;;;;5.16;2.28;;;;;;;14.56;93.16;99079.84;2009133;80;20191;-76
2021/08/04 03:09:34;;;;;;;4.95;1.89;;;;;;;14.54;93.16;99072.03;2007593;80;20701;-75
2021/08/04 03:12:36;;;;;;;6.20;2.20;;;;;;;14.52;93.28;99074.69;2006419;80;20169;-75
2021/08/04 03:15:40;;;;;;;9.99;1.94;;;;;;;14.51;93.23;99072.09;2005584;78;20771;-76
2021/08/04 03:18:42;;;;;;;3.79;1.92;;;;;;;14.50;93.14;99070.41;2007872;79;20188;-76
2021/08/04 03:21:45;;;;;;;4.32;2.22;;;;;;;14.46;93.01;99071.38;2006764;80;20205;-76
2021/08/04 03:24:48;;;;;;;5.66;2.10;;;;;;;14.42;93.04;99077.56;2007603;80;20203;-76
2021/08/04 03:27:50;;;;;;;3.14;2.05;;;;;;;14.41;93.35;99075.84;2003239;80;20183;-76
2021/08/04 03:30:53;;;;;;;2.58;1.99;;;;;;;14.43;93.33;99074.94;2005852;78;23724;-76
2021/08/04 03:33:56;;;;;;;5.72;2.14;;;;;;;14.42;93.29;99078.41;2007224;80;21166;-76
2021/08/04 03:36:58;;;;;;;3.36;2.09;;;;;;;14.41;93.30;99081.06;2006302;80;20189;-76
2021/08/04 03:40:01;;;;;;;3.40;2.21;;;;;;;14.39;93.21;99075.88;2006638;80;20684;-76
2021/08/04 03:43:03;;;;;;;2.49;2.29;;;;;;;14.38;93.08;99074.16;2005795;80;20194;-75
2021/08/04 03:46:06;;;;;;;4.93;2.16;;;;;;;14.37;93.07;99077.66;2004900;78;20221;-75
2021/08/04 03:49:09;;;;;;;4.26;2.19;;;;;;;14.37;93.00;99084.66;2006852;80;20217;-75
2021/08/04 03:52:11;;;;;;;3.53;1.89;;;;;;;14.37;92.91;99076.81;2002722;80;20185;-76
2021/08/04 03:55:14;;;;;;;6.32;1.90;;;;;;;14.37;92.94;99077.66;2006957;79;20201;-76
2021/08/04 03:58:16;;;;;;;2.60;1.69;;;;;;;14.37;93.05;99080.28;2006550;80;20201;-76
2021/08/04 04:01:19;;;;;;;6.18;1.95;;;;;;;14.35;93.08;99076.81;2006132;77;20951;-76
2021/08/04 04:04:22;;;;;;;3.44;2.17;;;;;;;14.34;93.31;99075.09;2006899;80;20202;-76
2021/08/04 04:07:24;;;;;;;3.94;2.50;;;;;;;14.35;93.22;99079.44;2006380;80;20254;-76
2021/08/04 04:10:27;;;;;;;2.60;2.35;;;;;;;14.32;93.24;99076.06;2006851;80;20162;-77
2021/08/04 04:13:29;;;;;;;4.56;2.42;;;;;;;14.32;93.13;99073.44;2006534;80;20782;-76
2021/08/04 04:16:32;;;;;;;3.67;2.17;;;;;;;14.29;93.16;99070.91;2005890;78;21392;-76
2021/08/04 04:19:35;;;;;;;3.19;2.78;;;;;;;14.29;93.25;99076.13;2007061;80;20203;-75
2021/08/04 04:22:37;;;;;;;6.72;2.85;;;;;;;14.32;93.33;99083.88;2006635;79;20747;-76
2021/08/04 04:25:40;;;;;;;5.04;2.63;;;;;;;14.33;93.24;99094.28;2006960;79;20781;-76
2021/08/04 04:28:43;;;;;;;4.03;1.88;;;;;;;14.33;93.34;99093.44;2006272;80;20198;-76
2021/08/04 04:31:46;;;;;;;4.59;2.84;;;;;;;14.35;93.28;99102.94;2003827;78;22348;-76
2021/08/04 04:34:48;;;;;;;6.10;2.00;;;;;;;14.37;93.32;99100.31;2006423;80;20778;-76
2021/08/04 04:37:51;;;;;;;5.28;2.06;;;;;;;14.30;93.17;99086.53;2006546;80;20173;-76
2021/08/04 04:40:53;;;;;;;3.42;2.29;;;;;;;14.33;93.21;99096.91;2007064;80;20257;-76
2021/08/04 04:43:56;;;;;;;3.81;2.35;;;;;;;14.33;93.14;99096.91;2007101;80;20218;-76
2021/08/04 04:46:58;;;;;;;4.59;2.31;;;;;;;14.38;92.99;99088.97;2004941;78;24510;-76
2021/08/04 04:50:02;;;;;;;2.25;2.00;;;;;;;14.38;92.89;99097.69;2006428;80;20226;-76
2021/08/04 04:53:04;;;;;;;2.34;2.01;;;;;;;14.39;92.82;99099.38;2006206;80;20190;-76
2021/08/04 04:56:07;;;;;;;2.75;2.17;;;;;;;14.40;92.71;99093.25;2007000;80;20188;-76
2021/08/04 04:59:09;;;;;;;2.91;1.94;;;;;;;14.41;92.69;99100.22;2006280;80;20205;-76
2021/08/04 06:09:46;;;;;;;5.43;2.14;;;;;;;14.87;89.98;99099.03;2027721;70;20142;-84
2021/08/04 06:12:50;;;;;;;5.88;2.06;;;;;;;14.91;90.32;99105.94;2016573;81;20166;-83
2021/08/04 06:15:53;;;;;;;4.40;3.19;;;;;;;14.95;90.17;99104.94;2013474;80;20174;-83
2021/08/04 06:18:56;;;;;;;3.54;2.00;;;;;;;15.02;89.61;99111.72;2016297;80;20171;-83
2021/08/04 06:21:59;;;;;;;6.59;2.19;;;;;;;15.07;89.64;99109.81;2064672;70;20303;-83
2021/08/04 06:25:02;;;;;;;3.50;2.76;;;;;;;15.17;89.55;99109.59;2013489;80;20202;-83
2021/08/04 06:28:05;;;;;;;6.06;2.17;;;;;;;15.19;89.23;99121.72;2003213;80;20327;-83
2021/08/04 06:31:08;;;;;;;7.10;2.13;;;;;;;15.26;89.50;99120.66;2007578;80;20184;-83
2021/08/04 06:34:11;;;;;;;7.44;2.13;;;;;;;15.44;89.63;99111.44;2009910;80;20199;-85
2021/08/04 06:37:15;;;;;;;6.28;2.20;;;;;;;15.70;89.46;99115.94;2007013;80;20120;-85
2021/08/04 06:40:18;;;;;;;3.01;2.15;;;;;;;15.97;88.15;99111.63;2004781;80;20240;-85
2021/08/04 06:43:22;;;;;;;4.32;2.20;;;;;;;16.21;86.84;99110.88;2111428;70;20218;-85
2021/08/04 06:46:45;;;;;;;;;;;;;;;;;;;;;
2021/08/04 07:29:34;;;;;;;3.45;1.50;;;;;;;16.89;79.71;99139.25;2093318;70;20135;-84
2021/08/04 07:32:38;;;;;;;4.64;1.84;;;;;;;16.90;78.56;99133.09;2101652;70;171262;-86
2021/08/04 07:35:41;;;;;;;4.50;1.65;;;;;;;17.03;78.46;99138.75;2020349;80;20182;-85
2021/08/04 07:38:44;;;;;;;1.79;1.58;;;;;;;17.07;77.54;99136.91;2019147;80;20135;-86
2021/08/04 07:41:47;;;;;;;2.26;1.70;;;;;;;17.17;77.58;99127.78;2017825;80;20162;-85
2021/08/04 07:44:51;;;;;;;3.90;2.10;;;;;;;17.44;78.64;99120.69;2023623;80;20131;-85
2021/08/04 07:47:54;;;;;;;3.26;1.92;;;;;;;17.77;78.86;99110.72;2009308;77;178592;-84
2021/08/04 07:50:58;;;;;;;3.04;1.54;;;;;;;18.11;77.67;99123.41;2011120;81;20162;-83
2021/08/04 07:54:01;;;;;;;2.13;1.83;;;;;;;18.36;75.02;99123.31;2010017;80;20307;-83
2021/08/04 07:57:04;;;;;;;4.09;1.95;;;;;;;18.67;74.55;99125.53;2009060;80;20166;-83
2021/08/04 08:00:08;;;;;;;2.04;1.48;;;;;;;18.90;73.12;99120.19;2011278;80;20242;-82
2021/08/04 08:03:12;;;;;;;2.14;1.94;;;;;;;19.03;71.38;99115.28;2011442;80;20143;-83
2021/08/04 08:06:15;;;;;;;3.14;1.27;;;;;;;19.16;70.38;99111.16;2012604;80;20182;-81
2021/08/04 08:09:24;;;;;;;2.20;1.52;;;;;;;19.38;70.75;99112.84;2016193;81;20182;-83
2021/08/04 08:12:27;;;;;;;2.13;1.29;;;;;;;19.76;68.50;99113.78;2013836;81;20183;-83
2021/08/04 08:15:31;;;;;;;5.45;1.44;;;;;;;20.26;67.38;99108.72;2017533;81;20202;-82
2021/08/04 08:18:33;;;;;;;3.05;1.01;;;;;;;20.65;64.36;99107.75;2010632;81;20204;-85
2021/08/04 08:21:36;;;;;;;1.85;1.38;;;;;;;21.08;63.15;99102.00;2010815;81;20190;-82
2021/08/04 08:24:39;;;;;;;2.94;1.14;;;;;;;21.18;60.66;99106.78;2014493;81;20178;-80
2021/08/04 08:27:42;;;;;;;1.60;1.10;;;;;;;21.47;59.04;99106.13;2010761;81;20207;-82
2021/08/04 08:30:46;;;;;;;1.40;1.02;;;;;;;21.52;59.13;99100.59;2009638;80;20199;-82
2021/08/04 08:33:48;;;;;;;2.28;1.02;;;;;;;21.58;60.39;99097.66;2009954;81;20276;-80
2021/08/04 08:36:51;;;;;;;2.29;1.00;;;;;;;21.67;60.58;99103.28;2013927;81;20174;-82
2021/08/04 08:39:53;;;;;;;2.44;0.95;;;;;;;21.66;59.68;99109.50;2013354;80;20174;-80
2021/08/04 08:42:56;;;;;;;1.27;0.93;;;;;;;21.75;59.80;99104.66;2009123;81;20304;-82
2021/08/04 08:45:59;;;;;;;2.42;0.90;;;;;;;21.82;59.58;99096.31;2013248;81;20187;-82
2021/08/04 08:49:03;;;;;;;2.29;1.09;;;;;;;21.83;58.05;99091.88;2011775;81;20195;-82
2021/08/04 08:52:05;;;;;;;1.10;1.00;;;;;;;21.83;58.33;99092.72;2013064;81;20170;-82
2021/08/04 08:55:11;;;;;;;1.10;1.00;;;;;;;21.99;59.14;99084.78;2013896;81;20257;-82
2021/08/04 08:58:14;;;;;;;1.54;1.01;;;;;;;22.14;56.39;99083.97;2014271;81;20169;-78
2021/08/04 09:01:17;;;;;;;1.99;1.00;;;;;;;22.23;57.19;99086.06;2012795;79;21543;-83
2021/08/04 09:04:20;;;;;;;1.99;1.29;;;;;;;22.41;57.21;99073.59;2014630;81;20207;-82
2021/08/04 09:07:30;;;;;;;2.21;1.05;;;;;;;22.69;56.86;99082.56;2011617;81;20170;-82
2021/08/04 09:10:36;;;;;;;1.85;1.24;;;;;;;22.77;56.12;99081.16;2010857;80;20235;-82
2021/08/04 09:13:38;;;;;;;0.80;0.80;;;;;;;23.00;57.37;99079.84;2012833;81;20182;-81
2021/08/04 09:16:43;;;;;;;1.51;0.90;;;;;;;23.30;55.99;99074.47;2014509;77;29845;-83
2021/08/04 09:19:51;;;;;;;2.51;0.81;;;;;;;23.46;54.83;99072.56;2012378;81;20242;-81
2021/08/04 09:23:01;;;;;;;3.06;0.91;;;;;;;23.63;54.17;99076.00;2015971;81;20209;-82
2021/08/04 09:26:10;;;;;;;2.26;0.70;;;;;;;23.08;51.42;99072.28;2014322;81;20220;-83
2021/08/04 09:29:12;;;;;;;1.06;0.89;;;;;;;22.70;54.11;99066.59;2014495;81;20235;-83
2021/08/04 09:32:22;;;;;;;0.89;0.80;;;;;;;22.52;54.68;99073.84;2014712;77;20217;-82
2021/08/04 09:35:25;;;;;;;1.48;0.73;;;;;;;21.99;55.19;99061.84;2013417;81;20214;-81
2021/08/04 09:38:28;;;;;;;1.75;0.80;;;;;;;21.57;57.66;99062.44;2032456;80;20161;-81
2021/08/04 09:41:31;;;;;;;2.24;0.73;;;;;;;21.09;58.12;99053.53;2013704;81;20182;-82
2021/08/04 09:44:34;;;;;;;1.80;0.90;;;;;;;20.62;59.67;99057.75;2012567;81;20202;-82
2021/08/04 09:47:38;;;;;;;0.82;0.80;;;;;;;20.40;60.79;99058.81;2013029;77;21898;-82
2021/08/04 09:50:50;;;;;;;1.24;0.80;;;;;;;20.76;56.94;99055.28;2012400;81;20194;-81
2021/08/04 09:54:09;;;;;;;1.90;0.82;;;;;;;21.51;58.49;99046.06;2012358;81;20165;-81
2021/08/04 09:57:12;;;;;;;1.64;0.80;;;;;;;21.96;56.41;99054.09;2010920;80;20209;-82
2021/08/04 10:00:16;;;;;;;1.06;0.93;;;;;;;22.25;55.98;99051.59;2012340;81;20219;-81
2021/08/04 10:03:19;;;;;;;1.42;0.79;;;;;;;22.69;53.56;99043.72;2012577;79;29287;-80
2021/08/04 10:06:21;;;;;;;1.61;0.70;;;;;;;23.01;50.08;99047.13;2014515;81;20165;-81
2021/08/04 10:09:28;;;;;;;0.91;0.74;;;;;;;23.45;52.48;99049.66;2012288;81;20260;-80
2021/08/04 10:12:31;;;;;;;3.42;0.81;;;;;;;23.63;52.52;99050.34;2013027;81;20181;-82
2021/08/04 10:15:41;;;;;;;2.13;0.79;;;;;;;23.41;52.97;99039.38;2017713;78;21629;-83
2021/08/04 10:18:44;;;;;;;1.44;0.80;;;;;;;23.56;52.54;99040.22;2019578;80;20327;-81
2021/08/04 10:21:49;;;;;;;1.09;0.79;;;;;;;23.86;51.37;99035.63;2017288;80;20181;-82
2021/08/04 10:24:52;;;;;;;0.80;0.80;;;;;;;23.86;51.11;99018.84;2020468;80;20173;-82
2021/08/04 10:27:56;;;;;;;2.16;0.70;;;;;;;23.61;50.78;99004.53;2018755;80;20217;-83
2021/08/04 10:30:58;;;;;;;1.41;0.70;;;;;;;23.25;47.64;99005.03;2020172;80;20161;-84
2021/08/04 10:34:02;;;;;;;1.27;0.80;;;;;;;22.86;47.41;99005.69;2020235;80;20173;-83
2021/08/04 10:37:05;;;;;;;0.90;0.76;;;;;;;22.97;49.66;99002.38;2021108;80;20276;-82
2021/08/04 10:40:08;;;;;;;1.44;0.80;;;;;;;23.40;50.90;99008.50;2022251;80;20189;-84
2021/08/04 10:46:41;;;;;;;0.80;0.80;;;;;;;23.58;48.26;98999.44;2034895;70;89658;-83
2021/08/04 10:49:44;;;;;;;1.55;0.79;;;;;;;23.36;50.55;99007.00;2015759;81;20158;-82
2021/08/04 10:53:01;;;;;;;1.80;0.74;;;;;;;23.15;48.67;98998.59;2015827;80;20227;-83
2021/08/04 10:56:04;;;;;;;0.81;0.81;;;;;;;23.10;48.90;98998.88;2017154;80;20130;-83
2021/08/04 10:59:12;;;;;;;2.28;0.63;;;;;;;23.04;46.87;98993.13;2013543;80;20201;-82
2021/08/04 11:02:14;;;;;;;2.50;0.80;;;;;;;23.42;48.18;98991.56;2004131;78;28441;-76
2021/08/04 11:05:17;;;;;;;0.80;0.80;;;;;;;23.73;46.80;98994.94;2002651;81;20221;-77
2021/08/04 11:08:20;;;;;;;1.85;0.70;;;;;;;23.87;48.16;98999.34;1999657;80;20209;-76
2021/08/04 11:12:01;;;;;;;122.25;13.21;;;;;;;23.34;46.77;98999.16;2002939;81;20199;-76
2021/08/04 11:15:18;;;;;;;1.98;0.90;;;;;;;23.37;47.49;98991.00;2003892;81;20521;-78
2021/08/04 11:18:22;;;;;;;1.95;0.64;;;;;;;23.33;47.20;98980.69;2004243;78;20715;-78
2021/08/04 11:21:25;;;;;;;1.56;0.73;;;;;;;22.91;48.00;98980.63;2002836;81;20215;-78
2021/08/04 11:25:16;;;;;;;1.36;0.81;;;;;;;22.61;51.63;98988.59;2007398;80;20199;-78
2021/08/04 11:28:19;;;;;;;0.80;0.80;;;;;;;22.30;51.86;98978.13;1999821;81;21013;-76
2021/08/04 11:31:23;;;;;;;0.73;0.70;;;;;;;22.18;53.62;98979.69;2001060;77;22106;-76
2021/08/04 11:34:29;;;;;;;2.78;0.90;;;;;;;22.50;53.72;98976.97;2017549;80;20211;-74
2021/08/04 11:37:40;;;;;;;1.54;0.84;;;;;;;23.13;53.13;98984.59;2003215;81;20177;-73
2021/08/04 11:40:44;;;;;;;0.70;0.60;;;;;;;23.73;48.69;98973.75;2006106;80;20345;-80
2021/08/04 11:43:48;;;;;;;3.06;0.65;;;;;;;24.36;48.24;98981.06;2023278;80;20756;-78
2021/08/04 11:47:01;;;;;;;0.80;0.75;;;;;;;24.59;47.72;98983.00;2011023;78;21868;-76
2021/08/04 11:50:07;;;;;;;2.29;0.94;;;;;;;24.30;45.22;98984.97;2008424;80;20198;-77
2021/08/04 11:53:09;;;;;;;1.71;0.68;;;;;;;24.07;46.68;98994.44;2007080;80;20216;-74
2021/08/04 11:56:12;;;;;;;0.70;0.70;;;;;;;23.86;47.25;98995.84;2006010;80;20194;-75
2021/08/04 11:59:15;;;;;;;1.55;0.54;;;;;;;23.58;46.81;98986.19;2006488;80;20719;-74
2021/08/04 12:02:22;;;;;;;2.17;0.75;;;;;;;23.43;48.25;98987.97;2018207;77;20385;-74
2021/08/04 12:05:25;;;;;;;1.16;0.80;;;;;;;23.54;47.63;98986.44;2021686;80;20310;-76
2021/08/04 12:08:28;;;;;;;0.98;0.80;;;;;;;23.81;46.49;98972.28;2022918;80;20412;-77
2021/08/04 12:11:41;;;;;;;3.85;0.70;;;;;;;23.61;45.31;98969.22;2022938;80;20809;-76
2021/08/04 12:14:46;;;;;;;1.86;0.66;;;;;;;23.69;46.63;98969.56;2022867;80;20302;-77
2021/08/04 12:18:05;;;;;;;0.91;0.55;;;;;;;23.63;44.71;98967.31;1996209;79;20360;-76
2021/08/04 12:21:07;;;;;;;1.76;0.60;;;;;;;23.75;44.29;98977.13;1996635;81;20194;-77
2021/08/04 12:24:10;;;;;;;1.29;0.64;;;;;;;23.57;45.47;98978.31;1995647;81;20284;-77
2021/08/04 12:27:27;;;;;;;1.54;0.60;;;;;;;23.52;45.02;98974.16;1997458;81;20253;-77
2021/08/04 12:30:36;;;;;;;0.85;0.69;;;;;;;23.68;47.17;98967.84;1996518;78;21483;-76
2021/08/04 12:33:45;;;;;;;1.10;0.68;;;;;;;24.20;45.25;98961.78;2005058;81;20173;-78
2021/08/04 12:36:54;;;;;;;1.09;0.70;;;;;;;24.65;45.65;98960.50;2001150;80;20183;-77
2021/08/04 12:40:09;;;;;;;1.27;0.82;;;;;;;25.17;45.17;98962.19;2003553;81;20769;-77
2021/08/04 12:43:13;;;;;;;0.86;0.70;;;;;;;25.17;45.21;98959.53;2001987;81;21227;-77
2021/08/04 12:46:24;;;;;;;2.30;0.60;;;;;;;24.88;44.71;98958.91;2003490;78;21573;-77
2021/08/04 12:49:28;;;;;;;0.98;0.60;;;;;;;24.57;44.40;98965.47;2011038;80;20295;-78
2021/08/04 12:52:38;;;;;;;2.06;0.86;;;;;;;24.29;45.40;98961.22;2008977;80;20228;-79
2021/08/04 12:55:57;;;;;;;1.06;0.60;;;;;;;24.14;45.65;98957.75;2011658;80;20157;-79
2021/08/04 12:59:03;;;;;;;1.61;0.61;;;;;;;23.98;45.09;98952.59;2010322;80;20193;-79
2021/08/04 13:02:08;;;;;;;1.14;0.70;;;;;;;23.83;45.24;98950.97;2024131;77;22597;-80
2021/08/04 13:05:11;;;;;;;0.82;0.70;;;;;;;23.63;45.37;98946.97;2026034;80;20207;-77
2021/08/04 13:08:30;;;;;;;0.70;0.70;;;;;;;23.41;46.16;98946.63;2023432;80;20208;-77
2021/08/04 13:11:33;;;;;;;2.66;0.69;;;;;;;23.34;47.32;98946.16;2027838;80;20171;-77
2021/08/04 13:15:00;;;;;;;1.91;0.80;;;;;;;23.37;47.30;98945.13;2025343;80;20167;-79
2021/08/04 13:18:04;;;;;;;;;;;;;;;23.35;47.94;98942.56;2002004;79;21481;-81
2021/08/04 13:21:12;;;;;;;1.83;0.81;;;;;;;23.25;47.63;98945.88;2002392;81;20042;-80
2021/08/04 13:24:31;;;;;;;;;;;;;;;23.19;48.25;98942.69;2001698;80;20186;-79
2021/08/04 13:27:34;;;;;;;0.60;0.60;;;;;;;23.24;48.48;98938.88;2001596;81;20095;-79
2021/08/04 13:30:49;;;;;;;1.17;0.70;;;;;;;23.29;49.58;98939.44;2001811;81;20355;-80
2021/08/04 13:33:53;;;;;;;0.79;0.79;;;;;;;23.58;49.93;98935.81;2003101;81;20188;-79
2021/08/04 13:36:56;;;;;;;0.63;0.60;;;;;;;23.86;49.06;98945.44;2003008;81;20685;-78
2021/08/04 13:39:58;;;;;;;0.80;0.80;;;;;;;23.88;48.59;98946.22;2000546;81;20769;-78
2021/08/04 13:43:01;;;;;;;1.16;0.76;;;;;;;23.65;47.30;98933.59;1994263;80;20192;-77
2021/08/04 13:46:05;;;;;;;0.74;0.70;;;;;;;23.47;49.55;98936.47;1997668;77;20275;-78
2021/08/04 13:49:07;;;;;;;1.71;0.70;;;;;;;23.33;49.35;98933.00;2002727;81;20214;-77
2021/08/04 13:52:10;;;;;;;1.35;0.70;;;;;;;23.15;48.23;98919.97;2003594;81;20810;-78
2021/08/04 13:55:15;;;;;;;1.20;0.64;;;;;;;23.07;49.07;98922.25;2003184;81;20726;-78
2021/08/04 13:58:17;;;;;;;4.05;0.80;;;;;;;23.03;48.97;98919.91;2002782;80;20182;-78
2021/08/04 14:01:20;;;;;;;2.80;0.89;;;;;;;22.93;53.71;98935.50;2004370;77;20193;-78
2021/08/04 14:04:23;;;;;;;0.60;0.60;;;;;;;22.88;51.34;98919.91;2007455;80;20246;-77
2021/08/04 14:07:25;;;;;;;0.50;0.50;;;;;;;22.84;48.83;98922.84;2005990;80;20161;-77
2021/08/04 14:10:28;;;;;;;0.85;0.60;;;;;;;22.66;49.56;98911.56;2006321;80;20194;-77
2021/08/04 14:13:30;;;;;;;1.74;0.60;;;;;;;22.69;50.09;98914.03;2006841;80;20173;-77
2021/08/04 14:16:33;;;;;;;2.66;0.70;;;;;;;22.77;48.25;98917.03;2014830;77;22900;-77
2021/08/04 14:19:36;;;;;;;1.08;0.70;;;;;;;22.83;49.35;98922.00;2023287;80;20297;-77
2021/08/04 14:22:40;;;;;;;0.90;0.80;;;;;;;22.87;48.59;98917.38;2023204;80;20244;-77
2021/08/04 14:25:42;;;;;;;1.27;0.60;;;;;;;22.87;49.25;98912.06;2023699;80;20233;-77
2021/08/04 14:28:45;;;;;;;1.24;0.71;;;;;;;22.91;49.60;98914.41;2024558;80;20204;-77
2021/08/04 14:31:47;;;;;;;0.60;0.60;;;;;;;22.96;49.36;98910.63;2013367;79;26070;-77
2021/08/04 14:34:50;;;;;;;0.56;0.55;;;;;;;23.03;50.36;98909.31;2007001;80;20225;-77
2021/08/04 14:37:55;;;;;;;5.29;0.80;;;;;;;23.09;50.09;98903.63;2006966;80;20621;-77
2021/08/04 14:40:57;;;;;;;1.77;0.70;;;;;;;23.06;48.21;98903.81;2006222;80;20299;-77
2021/08/04 14:44:00;;;;;;;2.86;0.70;;;;;;;23.07;49.97;98903.72;2006660;80;20201;-76
2021/08/04 14:47:02;;;;;;;1.65;0.68;;;;;;;23.16;49.46;98902.28;2017358;77;22522;-77
2021/08/04 14:50:07;;;;;;;3.24;0.70;;;;;;;23.20;50.81;98903.81;2026058;80;20220;-78
2021/08/04 14:53:09;;;;;;;1.11;0.80;;;;;;;23.30;50.53;98914.66;2023650;80;20199;-78
2021/08/04 14:56:14;;;;;;;1.65;0.79;;;;;;;23.47;51.46;98907.31;2023880;80;20179;-78
2021/08/04 14:59:17;;;;;;;0.60;0.60;;;;;;;23.58;50.10;98901.34;2023744;80;20252;-78
2021/08/04 15:02:19;;;;;;;0.70;0.70;;;;;;;23.50;49.64;98904.47;2011567;78;20655;-78
2021/08/04 15:05:22;;;;;;;0.80;0.77;;;;;;;23.32;49.62;98904.78;2010191;80;20221;-78
2021/08/04 15:08:25;;;;;;;3.29;0.80;;;;;;;23.18;49.79;98900.41;2009464;80;20733;-78
2021/08/04 15:11:28;;;;;;;0.96;0.63;;;;;;;23.06;50.26;98898.53;2009456;80;20178;-78
2021/08/04 15:14:30;;;;;;;0.73;0.60;;;;;;;22.97;49.70;98899.94;2009653;79;20220;-78
2021/08/04 15:17:34;;;;;;;0.65;0.65;;;;;;;22.91;49.42;98895.88;2020526;77;23319;-78
2021/08/04 15:20:36;;;;;;;0.55;0.55;;;;;;;22.86;50.14;98902.44;2025543;80;20187;-78
2021/08/04 15:23:39;;;;;;;5.32;1.02;;;;;;;22.82;51.95;98888.53;2025045;80;20201;-79
2021/08/04 15:26:42;;;;;;;1.00;0.80;;;;;;;22.90;52.34;98886.25;2023029;80;20209;-75
2021/08/04 15:29:45;;;;;;;1.50;0.80;;;;;;;22.88;51.27;98885.50;2022914;80;20186;-78
2021/08/04 15:32:48;;;;;;;1.20;0.61;;;;;;;22.80;53.46;98889.53;2021769;77;80781;-78
2021/08/04 15:35:50;;;;;;;1.90;0.90;;;;;;;22.64;51.96;98886.16;2025225;80;20600;-78
2021/08/04 15:38:53;;;;;;;0.61;0.60;;;;;;;22.55;54.03;98885.75;2024109;80;20224;-78
2021/08/04 15:41:56;;;;;;;0.70;0.70;;;;;;;22.50;54.15;98887.84;2024299;80;20197;-78
2021/08/04 15:44:58;;;;;;;1.59;0.80;;;;;;;22.66;54.03;98884.25;2029868;79;20195;-78
2021/08/04 15:48:02;;;;;;;0.66;0.61;;;;;;;22.60;53.47;98882.81;1996304;79;21310;-77
2021/08/04 15:51:05;;;;;;;1.59;0.60;;;;;;;22.52;54.03;98893.03;1997855;81;20199;-78
2021/08/04 15:54:08;;;;;;;1.26;0.60;;;;;;;22.38;55.63;98887.72;1996291;81;20206;-78
2021/08/04 15:57:11;;;;;;;0.85;0.75;;;;;;;22.22;54.28;98893.09;1997091;81;20198;-77
2021/08/04 16:00:14;;;;;;;1.15;0.80;;;;;;;22.18;55.24;98896.88;1996625;81;20239;-78
2021/08/04 16:03:17;;;;;;;0.71;0.70;;;;;;;22.13;54.01;98886.56;2000669;77;132824;-77
2021/08/04 16:06:19;;;;;;;1.17;0.70;;;;;;;22.12;55.01;98878.72;2002579;81;20197;-77
2021/08/04 16:09:22;;;;;;;1.36;0.80;;;;;;;22.08;54.73;98875.38;2002407;80;20253;-77
2021/08/04 16:12:24;;;;;;;0.95;0.70;;;;;;;22.03;55.11;98874.78;2001922;80;20364;-77
2021/08/04 16:15:27;;;;;;;1.46;0.70;;;;;;;22.02;53.99;98878.38;2001417;78;31832;-77
2021/08/04 16:18:32;;;;;;;0.86;0.73;;;;;;;21.96;54.93;98874.31;2006394;80;20197;-77
2021/08/04 16:21:34;;;;;;;0.95;0.75;;;;;;;21.92;54.87;98866.66;2007984;80;20193;-77